Northborough, Massachusetts
Current Conditions -  °F | °C
As of 9:07 AM on Friday 24 Oct 2014 (Local Time) from KORH Reporting Station
Overcast Overcast  
Wind Chill: 37°   Ceiling: 800
Heat Index: 44°   Visibility: 10mi
Dew Point: 42°   Wind: 16mph
Humidity: 93%   Direction: 320°NW
Pressure: 29.72"   Gusts: NA
Location:  42.32°N, 71.64°W
Report Text: KORH 241307Z 32014KT 10SM BKN008 BKN048 OVC060 07/06 A2972 RMK AO2 T00670056
Loading
Personal Weather Stations






























Interactive Weather Map
Tropical Storm Tracking
New forecast layout! Learn more

10-Day Weather Forecast

Advertisements
Track Severe Weather on mobile